Aérodrome :
LOGIN :

S'inscrire | Disclaimer

   EN    FR    IT 

 










Légende :    VFR   VFR Marginal   IFR   IFR Intensif   IFR Très Intensif
Visi : 
Plafond : 
>= 8 km
>= 3000ft
5 à 8 km
1000 à 3000 ft
1500m à 5 km
500 à 1000 ft
800 à 1500m
200 à 500 ft
< 800m
< 200 ft
Symboles :   Orages  Brouillard  Fortes neiges  Fortes précipitations  Vent > 20 kt
SIGMETs :   Divers  Orages  Givrage  Turbulence  Onde Orograph.  Cendres Volcan.






- Altitude de l'aérodrome : 183 ft
- Code IATA : HAJ


EDDV - Hanover/Langenhagen Int.

DERNIER METAR :
  • 301520Z AUTO VRB02KT 9999 -SHRA FEW///CB 29/15 Q1010 TEMPO 14015G30KT TSRA BKN045CB

METARs EXPIRÉS :
  • 301450Z AUTO 18004KT 120V220 CAVOK 29/15 Q1010 TEMPO TSRA BKN045CB
  • 301420Z AUTO VRB05KT CAVOK 31/15 Q1010 NOSIG
  • 301350Z AUTO 06005KT 330V130 CAVOK 29/15 Q1010 NOSIG
  • 301320Z AUTO VRB03KT CAVOK 30/16 Q1010 NOSIG
  • 301250Z AUTO VRB05KT CAVOK 29/16 Q1011 NOSIG

TAF TAF EDDV
Valide du 30 à 12h jusqu'au 01 à 12h UTC


301100Z 3012/0112 11006KT CAVOK
PROB30
TEMPO 3015/3018 -TSRA SCT050CB
BECMG 3017/3019 18004KT
TEMPO 3021/0104 SHRA BKN050CB
PROB30
TEMPO 3021/0103 29015G25KT 4000 TSRA
BECMG 3022/3024 28009KT BKN014
PROB40
TEMPO 0100/0106 BKN008
TEMPO 0104/0109 RA SCT008 BKN015
BECMG 0109/0110 SCT025



MET'MAP, la Météo Aéronautique d'un coup d'oeil ! - Copyright ORBIFLY Décembre 2007 - Disclaimer

ORBIFLY MET'MAP TEAM :

Programmation & Développement : Alexandra Zaïnal
Sur une idée originale de : Baudouin d'Aumeries
Soutien technique & logistique : Manuel Goepfert
Assistance : Marc-Olivier Méhu




SOURCES & CREDITS :

   NOAA